createdAt,value
2018-05-07T00:01:45.925Z,15.91
2018-05-07T00:04:20.795Z,15.89
2018-05-07T00:06:55.562Z,15.82
2018-05-07T00:09:31.496Z,15.78
2018-05-07T00:12:06.074Z,15.74
2018-05-07T00:14:41.021Z,15.69
2018-05-07T00:17:15.545Z,15.64
2018-05-07T00:19:50.377Z,15.58
2018-05-07T00:22:25.121Z,15.54
2018-05-07T00:25:00.028Z,15.48
2018-05-07T00:27:35.053Z,15.47
2018-05-07T00:30:09.787Z,15.47
2018-05-07T00:32:44.502Z,15.44
2018-05-07T00:35:19.437Z,15.42
2018-05-07T00:37:54.289Z,15.40
2018-05-07T00:40:28.693Z,15.36
2018-05-07T00:43:03.525Z,15.32
2018-05-07T00:45:38.353Z,15.27
2018-05-07T00:48:13.053Z,15.22
2018-05-07T00:50:47.680Z,15.18
2018-05-07T00:53:22.441Z,15.11
2018-05-07T00:55:57.005Z,15.01
2018-05-07T00:58:31.817Z,14.94
2018-05-07T01:01:06.497Z,14.88
2018-05-07T01:03:41.509Z,14.83
2018-05-07T01:06:16.048Z,14.77
2018-05-07T01:08:51.009Z,14.70
2018-05-07T01:11:25.724Z,14.63
2018-05-07T01:14:00.864Z,14.56
2018-05-07T01:16:35.722Z,14.47
2018-05-07T01:19:10.893Z,14.39
2018-05-07T01:21:45.685Z,14.33
2018-05-07T01:24:20.630Z,14.27
2018-05-07T01:26:55.338Z,14.21
2018-05-07T01:29:30.089Z,14.15
2018-05-07T01:32:04.528Z,14.09
2018-05-07T01:34:39.346Z,14.03
2018-05-07T01:37:14.276Z,13.96
2018-05-07T01:39:49.105Z,13.90
2018-05-07T01:42:23.829Z,13.84
2018-05-07T01:44:58.659Z,13.78
2018-05-07T01:47:33.597Z,13.72
2018-05-07T01:50:08.489Z,13.66
2018-05-07T01:52:43.330Z,13.61
2018-05-07T01:55:18.097Z,13.56
2018-05-07T01:57:52.981Z,13.51
2018-05-07T02:00:27.658Z,13.46
2018-05-07T02:03:02.998Z,13.42
2018-05-07T02:05:37.548Z,13.40
2018-05-07T02:08:12.144Z,13.39
2018-05-07T02:10:47.006Z,13.37
2018-05-07T02:13:21.908Z,13.35
2018-05-07T02:15:56.846Z,13.33
2018-05-07T02:18:31.460Z,13.32
2018-05-07T02:21:06.044Z,13.30
2018-05-07T02:23:40.753Z,13.29
2018-05-07T02:26:15.680Z,13.27
2018-05-07T02:28:50.445Z,13.21
2018-05-07T02:31:25.395Z,13.18
2018-05-07T02:34:00.147Z,13.15
2018-05-07T02:36:34.655Z,13.07
2018-05-07T02:39:09.498Z,13.06
2018-05-07T02:41:44.320Z,13.02
2018-05-07T02:44:18.955Z,13.01
2018-05-07T02:46:53.942Z,13.00
2018-05-07T02:49:28.534Z,12.96
2018-05-07T02:52:03.270Z,12.93
2018-05-07T02:54:38.110Z,12.87
2018-05-07T02:57:12.902Z,12.79
2018-05-07T02:59:47.740Z,12.74
2018-05-07T03:02:22.561Z,12.69
2018-05-07T03:04:57.186Z,12.66
2018-05-07T03:07:32.138Z,12.64
2018-05-07T03:10:06.581Z,12.62
2018-05-07T03:12:41.189Z,12.60
2018-05-07T03:15:15.993Z,12.57
2018-05-07T03:17:50.576Z,12.55
2018-05-07T03:20:25.377Z,12.55
2018-05-07T03:23:00.484Z,12.54
2018-05-07T03:25:35.337Z,12.51
2018-05-07T03:28:10.367Z,12.49
2018-05-07T03:30:45.160Z,12.46
2018-05-07T03:33:20.141Z,12.44
2018-05-07T03:35:54.877Z,12.43
2018-05-07T03:38:29.670Z,12.41
2018-05-07T03:41:04.430Z,12.37
2018-05-07T03:43:39.098Z,12.32
2018-05-07T03:46:13.649Z,12.29
2018-05-07T03:48:48.569Z,12.24
2018-05-07T03:51:23.328Z,12.18
2018-05-07T03:53:58.051Z,12.17
2018-05-07T03:56:32.958Z,12.12
2018-05-07T03:59:07.769Z,12.09
2018-05-07T04:01:42.368Z,12.07
2018-05-07T04:04:17.092Z,12.06
2018-05-07T04:06:51.910Z,12.05
2018-05-07T04:09:26.823Z,12.09
2018-05-07T04:12:01.941Z,12.13
2018-05-07T04:14:37.217Z,12.24
2018-05-07T04:17:23.110Z,12.29
2018-05-07T04:20:09.880Z,12.30
2018-05-07T04:22:55.521Z,12.42
2018-05-07T04:25:29.935Z,13.27
2018-05-07T04:28:04.676Z,14.19
2018-05-07T04:30:39.585Z,14.88
2018-05-07T04:33:14.312Z,15.29
2018-05-07T04:35:49.037Z,15.49
2018-05-07T04:38:23.635Z,15.62
2018-05-07T04:40:58.445Z,15.79
2018-05-07T04:43:33.434Z,15.94
2018-05-07T04:46:08.287Z,15.97
2018-05-07T04:48:43.124Z,15.70
2018-05-07T04:51:18.146Z,15.31
2018-05-07T04:53:53.076Z,14.90
2018-05-07T04:56:27.809Z,14.52
2018-05-07T04:59:02.414Z,14.21
2018-05-07T05:01:37.360Z,13.95
2018-05-07T05:04:12.067Z,13.78
2018-05-07T05:06:47.034Z,13.66
2018-05-07T05:09:22.575Z,13.56
2018-05-07T05:11:57.461Z,13.50
2018-05-07T05:14:32.340Z,13.41
2018-05-07T05:17:07.456Z,13.36
2018-05-07T05:19:42.176Z,13.35
2018-05-07T05:22:16.741Z,13.38
2018-05-07T05:24:52.170Z,13.45
2018-05-07T05:27:27.215Z,13.56
2018-05-07T05:30:01.924Z,13.64
2018-05-07T05:32:36.913Z,13.70
2018-05-07T05:35:11.557Z,13.78
2018-05-07T05:37:46.417Z,13.85
2018-05-07T05:40:21.921Z,13.96
2018-05-07T05:42:57.200Z,14.08
2018-05-07T05:45:33.477Z,14.19
2018-05-07T05:48:08.107Z,14.34
2018-05-07T05:50:42.957Z,14.46
2018-05-07T05:53:17.665Z,14.55
2018-05-07T05:55:52.265Z,14.70
2018-05-07T05:58:26.907Z,14.88
2018-05-07T06:01:01.553Z,15.03
2018-05-07T06:03:36.276Z,15.21
2018-05-07T06:06:11.507Z,15.38
2018-05-07T06:08:46.561Z,15.53
2018-05-07T06:11:21.461Z,15.73
2018-05-07T06:13:56.318Z,15.89
2018-05-07T06:16:31.117Z,16.07
2018-05-07T06:19:05.873Z,16.24
2018-05-07T06:21:40.773Z,16.38
2018-05-07T06:24:15.738Z,16.44
2018-05-07T06:26:50.748Z,16.62
2018-05-07T06:29:25.757Z,16.79
2018-05-07T06:32:00.556Z,16.93
2018-05-07T06:34:35.573Z,17.14
2018-05-07T06:37:10.057Z,17.32
2018-05-07T06:39:45.143Z,17.53
2018-05-07T06:42:20.278Z,17.79
2018-05-07T06:44:55.226Z,18.06
2018-05-07T06:47:30.858Z,18.20
2018-05-07T06:50:05.369Z,18.41
2018-05-07T06:52:40.371Z,18.49
2018-05-07T06:55:15.141Z,18.60
2018-05-07T06:57:49.873Z,18.71
2018-05-07T07:00:24.673Z,18.90
2018-05-07T07:02:59.383Z,19.03
2018-05-07T07:05:34.078Z,19.17
2018-05-07T07:08:08.801Z,19.34
2018-05-07T07:10:43.452Z,19.51
2018-05-07T07:13:18.130Z,19.66
2018-05-07T07:15:53.297Z,19.90
2018-05-07T07:18:28.088Z,20.10
2018-05-07T07:21:02.925Z,20.27
2018-05-07T07:23:37.686Z,20.45
2018-05-07T07:26:12.527Z,20.63
2018-05-07T07:28:47.462Z,20.68
2018-05-07T07:31:22.292Z,20.76
2018-05-07T07:33:57.127Z,20.92
2018-05-07T07:36:31.847Z,21.08
2018-05-07T07:39:06.319Z,21.26
2018-05-07T07:41:41.224Z,21.47
2018-05-07T07:44:16.032Z,21.58
2018-05-07T07:46:50.889Z,21.71
2018-05-07T07:49:25.775Z,21.81
2018-05-07T07:52:00.825Z,21.83
2018-05-07T07:54:35.653Z,21.84
2018-05-07T07:57:10.343Z,21.94
2018-05-07T07:59:45.080Z,21.98
2018-05-07T08:02:19.725Z,22.02
2018-05-07T08:04:54.734Z,22.08
2018-05-07T08:07:29.912Z,22.15
2018-05-07T08:10:04.436Z,22.39
2018-05-07T08:12:39.267Z,22.45
2018-05-07T08:15:13.991Z,22.52
2018-05-07T08:17:48.633Z,22.54
2018-05-07T08:20:23.540Z,22.43
2018-05-07T08:22:58.357Z,22.38
2018-05-07T08:25:33.530Z,22.39
2018-05-07T08:28:08.132Z,22.52
2018-05-07T08:30:42.785Z,22.69
2018-05-07T08:33:17.502Z,22.86
2018-05-07T08:35:52.100Z,22.94
2018-05-07T08:38:27.101Z,23.08
2018-05-07T08:41:02.001Z,23.22
2018-05-07T08:43:37.003Z,23.31
2018-05-07T09:07:11.413Z,24.21
2018-05-07T09:09:46.320Z,24.19
2018-05-07T09:12:21.033Z,24.17
2018-05-07T09:14:56.111Z,24.16
2018-05-07T09:17:30.641Z,24.22
2018-05-07T09:20:05.636Z,24.27
2018-05-07T09:22:40.432Z,24.32
2018-05-07T09:25:15.392Z,24.09
2018-05-07T09:27:50.241Z,24.11
2018-05-07T09:30:25.076Z,24.41
2018-05-07T09:32:59.676Z,24.69
2018-05-07T09:35:34.532Z,25.02
2018-05-07T09:38:09.360Z,25.28
2018-05-07T09:40:44.316Z,25.41
2018-05-07T09:43:19.279Z,25.45
2018-05-07T09:45:54.358Z,25.30
2018-05-07T09:48:29.217Z,25.15
2018-05-07T09:51:03.843Z,25.25
2018-05-07T09:53:38.525Z,25.47
2018-05-07T09:56:13.398Z,25.43
2018-05-07T09:58:57.645Z,25.51
2018-05-07T10:01:33.156Z,25.54
2018-05-07T10:04:08.440Z,25.67
2018-05-07T10:06:43.163Z,25.77
2018-05-07T10:09:18.069Z,25.71
2018-05-07T10:11:52.836Z,25.82
2018-05-07T10:14:27.284Z,26.21
2018-05-07T10:17:02.606Z,26.39
2018-05-07T10:19:37.436Z,26.33
2018-05-07T10:22:12.360Z,26.10
2018-05-07T10:24:47.071Z,26.09
2018-05-07T10:27:21.922Z,26.33
2018-05-07T10:29:56.650Z,26.52
2018-05-07T10:32:31.523Z,26.39
2018-05-07T10:35:06.485Z,26.44
2018-05-07T10:37:41.232Z,26.40
2018-05-07T10:40:16.116Z,26.39
2018-05-07T10:42:50.945Z,26.51
2018-05-07T10:45:25.480Z,26.60
2018-05-07T10:48:00.249Z,26.73
2018-05-07T10:50:35.285Z,26.71
2018-05-07T10:53:10.013Z,26.62
2018-05-07T10:55:44.841Z,26.73
2018-05-07T10:58:19.897Z,26.61
2018-05-07T11:00:54.772Z,26.71
2018-05-07T11:03:29.446Z,26.78
2018-05-07T11:06:04.265Z,27.06
2018-05-07T11:08:39.081Z,27.06
2018-05-07T11:11:14.148Z,26.98
2018-05-07T11:13:49.182Z,26.79
2018-05-07T11:16:23.915Z,26.66
2018-05-07T11:18:58.642Z,26.72
2018-05-07T11:21:33.363Z,26.84
2018-05-07T11:24:08.239Z,26.98
2018-05-07T11:26:43.088Z,27.33
2018-05-07T11:29:18.053Z,27.76
2018-05-07T11:31:52.901Z,28.16
2018-05-07T11:34:27.833Z,28.06
2018-05-07T11:37:02.767Z,27.94
2018-05-07T11:39:37.640Z,27.65
2018-05-07T11:42:12.617Z,27.46
2018-05-07T11:44:47.547Z,27.40
2018-05-07T11:47:22.586Z,27.39
2018-05-07T11:49:57.103Z,27.39
2018-05-07T11:52:32.177Z,27.62
2018-05-07T11:55:06.713Z,27.58
2018-05-07T11:57:42.041Z,27.55
2018-05-07T12:00:16.621Z,27.64
2018-05-07T12:02:51.798Z,27.83
2018-05-07T12:05:26.800Z,28.20
2018-05-07T12:08:01.562Z,28.28
2018-05-07T12:10:36.533Z,28.14
2018-05-07T12:13:11.616Z,28.02
2018-05-07T12:15:46.489Z,28.23
2018-05-07T12:18:21.137Z,28.23
2018-05-07T12:20:55.901Z,28.12
2018-05-07T12:23:31.029Z,28.08
2018-05-07T12:26:05.837Z,27.87
2018-05-07T12:28:40.789Z,27.97
2018-05-07T12:31:15.806Z,27.90
2018-05-07T12:33:50.689Z,28.07
2018-05-07T12:36:25.357Z,28.05
2018-05-07T12:39:00.229Z,27.76
2018-05-07T12:41:35.064Z,27.67
2018-05-07T12:44:10.116Z,27.67
2018-05-07T12:46:44.978Z,27.35
2018-05-07T12:49:19.760Z,27.27
2018-05-07T12:51:54.559Z,27.36
2018-05-07T12:54:29.341Z,27.67
2018-05-07T12:57:04.273Z,27.77
2018-05-07T12:59:38.953Z,27.72
2018-05-07T13:02:13.772Z,27.80
2018-05-07T13:04:48.413Z,28.00
2018-05-07T13:07:23.103Z,27.98
2018-05-07T13:09:57.814Z,27.99
2018-05-07T13:12:32.737Z,28.16
2018-05-07T13:15:07.553Z,28.29
2018-05-07T13:17:42.480Z,28.54
2018-05-07T13:20:17.228Z,28.71
2018-05-07T13:22:52.056Z,28.53
2018-05-07T13:25:26.988Z,28.27
2018-05-07T13:28:01.788Z,28.04
2018-05-07T13:30:36.973Z,27.98
2018-05-07T13:46:15.786Z,27.61
2018-05-07T13:48:50.484Z,27.70
2018-05-07T13:51:25.283Z,27.83
2018-05-07T13:54:00.093Z,28.15
2018-05-07T13:56:34.900Z,28.55
2018-05-07T13:59:09.588Z,28.33
2018-05-07T14:01:44.661Z,28.16
2018-05-07T14:04:19.505Z,27.94
2018-05-07T14:06:54.084Z,27.86
2018-05-07T14:09:29.108Z,27.88
2018-05-07T14:12:03.797Z,27.95
2018-05-07T14:14:38.676Z,28.13
2018-05-07T14:17:13.433Z,28.18
2018-05-07T14:19:48.192Z,28.13
2018-05-07T14:22:23.034Z,28.06
2018-05-07T14:24:57.761Z,28.08
2018-05-07T14:27:32.633Z,28.04
2018-05-07T14:30:07.514Z,27.93
2018-05-07T14:32:42.441Z,27.78
2018-05-07T14:35:17.140Z,27.80
2018-05-07T14:37:51.561Z,27.85
2018-05-07T14:40:26.549Z,27.72
2018-05-07T14:43:01.553Z,27.61
2018-05-07T14:45:36.663Z,27.60
2018-05-07T14:48:11.961Z,27.74
2018-05-07T14:50:46.672Z,27.78
2018-05-07T14:53:21.494Z,27.78
2018-05-07T14:55:56.296Z,27.67
2018-05-07T14:58:31.334Z,27.52
2018-05-07T15:01:06.136Z,27.43
2018-05-07T15:03:40.704Z,27.31
2018-05-07T15:06:15.609Z,27.32
2018-05-07T15:08:50.694Z,27.39
2018-05-07T15:11:25.625Z,27.40
2018-05-07T15:14:11.649Z,27.30
2018-05-07T15:16:46.233Z,27.24
2018-05-07T15:19:20.958Z,27.34
2018-05-07T15:54:55.427Z,26.62
2018-05-07T15:57:30.149Z,26.45
2018-05-07T16:00:04.406Z,26.40
2018-05-07T16:02:39.612Z,26.26
2018-05-07T16:05:14.184Z,26.12
2018-05-07T16:07:49.142Z,26.23
2018-05-07T16:10:23.734Z,26.29
2018-05-07T16:12:58.635Z,26.23
2018-05-07T16:15:33.648Z,26.21
2018-05-07T16:18:08.499Z,26.10
2018-05-07T16:20:43.504Z,26.07
2018-05-07T16:23:18.362Z,26.12
2018-05-07T16:25:53.038Z,26.13
2018-05-07T16:28:27.752Z,26.09
2018-05-07T16:31:02.633Z,26.06
2018-05-07T16:33:37.485Z,26.00
2018-05-07T16:36:12.104Z,25.88
2018-05-07T16:38:46.708Z,25.79
2018-05-07T16:41:21.633Z,25.66
2018-05-07T16:43:56.540Z,25.66
2018-05-07T16:46:31.313Z,25.69
2018-05-07T16:49:06.262Z,25.73
2018-05-07T16:51:40.998Z,25.62
2018-05-07T16:54:15.978Z,25.54
2018-05-07T16:56:50.829Z,25.49
2018-05-07T16:59:25.625Z,25.48
2018-05-07T17:02:00.614Z,25.46
2018-05-07T17:04:35.359Z,25.38
2018-05-07T17:07:10.033Z,25.35
2018-05-07T17:09:44.945Z,25.36
2018-05-07T17:12:19.596Z,25.37
2018-05-07T17:14:54.373Z,25.31
2018-05-07T17:17:29.309Z,25.23
2018-05-07T17:20:03.902Z,25.13
2018-05-07T17:22:38.988Z,25.06
2018-05-07T17:25:13.837Z,25.04
2018-05-07T17:27:48.710Z,24.98
2018-05-07T17:30:23.636Z,24.91
2018-05-07T17:32:59.229Z,24.96
2018-05-07T17:35:33.853Z,24.91
2018-05-07T17:38:08.902Z,24.87
2018-05-07T17:40:43.705Z,24.81
2018-05-07T17:56:21.611Z,24.82
2018-05-07T17:58:56.402Z,24.60
2018-05-07T18:01:31.286Z,24.48
2018-05-07T18:04:05.983Z,24.40
2018-05-07T18:06:40.822Z,24.23
2018-05-07T18:09:15.205Z,24.12
2018-05-07T18:11:50.222Z,24.03
2018-05-07T18:14:25.093Z,23.91
2018-05-07T18:16:59.886Z,23.85
2018-05-07T18:19:34.733Z,23.81
2018-05-07T18:22:09.589Z,23.78
2018-05-07T18:24:44.437Z,23.66
2018-05-07T18:27:18.887Z,23.48
2018-05-07T18:29:53.744Z,23.35
2018-05-07T18:32:28.834Z,23.29
2018-05-07T18:35:03.421Z,23.22
2018-05-07T18:37:38.385Z,23.10
2018-05-07T18:40:13.013Z,22.96
2018-05-07T18:42:47.949Z,22.86
2018-05-07T18:45:22.757Z,22.76
2018-05-07T18:47:57.402Z,22.66
2018-05-07T18:50:32.130Z,22.56
2018-05-07T18:53:06.775Z,22.45
2018-05-07T18:55:41.333Z,22.37
2018-05-07T18:58:15.941Z,22.29
2018-05-07T19:00:50.677Z,22.21
2018-05-07T19:03:25.276Z,22.09
2018-05-07T19:06:00.006Z,21.99
2018-05-07T19:08:34.771Z,21.92
2018-05-07T19:11:09.481Z,21.86
2018-05-07T19:13:44.265Z,21.74
2018-05-07T19:16:19.192Z,21.61
2018-05-07T19:18:54.184Z,21.58
2018-05-07T19:21:29.686Z,21.49
2018-05-07T19:24:04.945Z,21.45
2018-05-07T19:26:39.848Z,21.41
2018-05-07T19:29:14.601Z,21.35
2018-05-07T19:31:49.340Z,21.31
2018-05-07T19:34:24.057Z,21.28
2018-05-07T19:36:58.684Z,21.27
2018-05-07T19:39:33.515Z,21.26
2018-05-07T19:42:08.254Z,21.25
2018-05-07T19:44:43.069Z,21.22
2018-05-07T19:47:17.676Z,21.19
2018-05-07T19:49:52.429Z,21.16
2018-05-07T19:52:27.136Z,21.08
2018-05-07T19:55:01.886Z,21.00
2018-05-07T19:57:36.721Z,20.89
2018-05-07T20:00:11.409Z,20.79
2018-05-07T20:02:46.173Z,20.69
2018-05-07T20:05:21.062Z,20.60
2018-05-07T20:07:55.653Z,20.52
2018-05-07T20:10:30.558Z,20.44
2018-05-07T20:13:05.394Z,20.36
2018-05-07T20:15:40.073Z,20.27
2018-05-07T20:18:15.650Z,20.18
2018-05-07T20:20:50.497Z,20.08
2018-05-07T20:23:25.130Z,19.97
2018-05-07T20:25:59.828Z,19.88
2018-05-07T20:28:34.461Z,19.78
2018-05-07T20:31:09.109Z,19.71
2018-05-07T20:33:43.562Z,19.62
2018-05-07T20:36:18.338Z,19.54
2018-05-07T20:38:53.236Z,19.44
2018-05-07T20:41:28.030Z,19.37
2018-05-07T20:44:02.738Z,19.28
2018-05-07T20:46:38.290Z,19.20
2018-05-07T20:49:12.889Z,19.12
2018-05-07T20:51:47.770Z,19.03
2018-05-07T20:54:22.578Z,18.98
2018-05-07T20:56:57.326Z,18.92
2018-05-07T20:59:31.802Z,18.84
2018-05-07T21:02:06.449Z,18.77
2018-05-07T21:04:41.361Z,18.71
2018-05-07T21:07:16.109Z,18.61
2018-05-07T21:09:50.977Z,18.53
2018-05-07T21:12:25.765Z,18.43
2018-05-07T21:15:00.510Z,18.37
2018-05-07T21:17:35.267Z,18.33
2018-05-07T21:20:09.997Z,18.31
2018-05-07T21:22:44.350Z,18.29
2018-05-07T21:25:18.942Z,18.29
2018-05-07T21:27:53.857Z,18.32
2018-05-07T21:30:28.680Z,18.34
2018-05-07T21:33:03.521Z,18.35
2018-05-07T21:35:38.293Z,18.35
2018-05-07T21:38:12.945Z,18.36
2018-05-07T21:40:47.873Z,18.35
2018-05-07T21:43:22.942Z,18.35
2018-05-07T21:45:58.285Z,18.32
2018-05-07T21:48:33.132Z,18.30
2018-05-07T21:51:08.061Z,18.26
2018-05-07T21:53:43.324Z,18.24
2018-05-07T21:56:18.717Z,18.22
2018-05-07T21:58:53.659Z,18.15
2018-05-07T22:01:28.281Z,18.09
2018-05-07T22:04:02.866Z,18.03
2018-05-07T22:06:37.614Z,17.99
2018-05-07T22:09:12.341Z,17.93
2018-05-07T22:11:46.996Z,17.89
2018-05-07T22:14:21.891Z,17.84
2018-05-07T22:16:57.585Z,17.81
2018-05-07T22:19:32.309Z,17.79
2018-05-07T22:22:07.097Z,17.76
2018-05-07T22:24:41.868Z,17.71
2018-05-07T22:27:16.455Z,17.68
2018-05-07T22:29:51.272Z,17.62
2018-05-07T22:32:25.951Z,17.57
2018-05-07T22:35:00.633Z,17.55
2018-05-07T22:37:35.557Z,17.48
2018-05-07T22:40:10.161Z,17.44
2018-05-07T22:42:44.889Z,17.45
2018-05-07T22:45:19.601Z,17.45
2018-05-07T22:47:54.493Z,17.39
2018-05-07T22:50:29.358Z,17.30
2018-05-07T22:53:04.098Z,17.22
2018-05-07T22:55:38.740Z,17.15
2018-05-07T22:58:13.181Z,17.07
2018-05-07T23:00:48.013Z,16.98
2018-05-07T23:03:22.473Z,16.92
2018-05-07T23:05:57.333Z,16.86
2018-05-07T23:08:32.065Z,16.80
2018-05-07T23:11:06.606Z,16.74
2018-05-07T23:13:41.502Z,16.66
2018-05-07T23:16:16.269Z,16.57
2018-05-07T23:18:50.986Z,16.49
2018-05-07T23:21:25.299Z,16.44
2018-05-07T23:24:00.210Z,16.40
2018-05-07T23:26:35.061Z,16.37
2018-05-07T23:29:10.068Z,16.35
2018-05-07T23:31:44.817Z,16.33
2018-05-07T23:34:19.425Z,16.32
2018-05-07T23:36:54.382Z,16.31
2018-05-07T23:39:29.056Z,16.29
2018-05-07T23:42:03.700Z,16.27
2018-05-07T23:44:38.490Z,16.27
2018-05-07T23:47:13.209Z,16.25
2018-05-07T23:49:48.292Z,16.23
2018-05-07T23:52:22.851Z,16.20
2018-05-07T23:54:57.725Z,16.17
2018-05-07T23:57:32.546Z,16.14
